Time,TemperatureF,DewpointF,PressureIn,WindDirection,WindDirectionDegrees,WindSpeedMPH,WindSpeedGustMPH,Humidity,HourlyPrecipIn,Conditions,Clouds,dailyrainin,SoftwareType,DateUTC
2013-04-22 15:22:00,76.0,57.0,30.27,SW,235,7.0,15.0,52,0.00,,,-99.99,,2013-04-22 20:22:00,
2013-04-22 15:32:00,76.0,57.0,30.27,SW,235,7.0,15.0,52,0.00,,,-99.99,,2013-04-22 20:32:00,
2013-04-22 15:42:00,76.0,57.0,30.27,SW,235,7.0,15.0,52,0.00,,,-99.99,,2013-04-22 20:42:00,
2013-04-22 15:51:00,78.0,58.0,30.24,WSW,256,3.0,16.0,50,0.00,,,-99.99,,2013-04-22 20:51:00,
2013-04-22 16:02:00,78.0,56.0,30.23,South,176,13.0,21.0,47,0.00,,,-99.99,,2013-04-22 21:02:00,
2013-04-22 16:11:00,79.0,56.0,30.21,SE,129,8.0,16.0,45,0.00,,,-99.99,,2013-04-22 21:11:00,
2013-04-22 16:21:00,79.0,56.0,30.21,SE,129,8.0,16.0,45,0.00,,,-99.99,,2013-04-22 21:21:00,
2013-04-22 16:32:00,79.0,56.0,30.21,SE,129,8.0,16.0,45,0.00,,,-99.99,,2013-04-22 21:32:00,
2013-04-22 16:42:00,79.0,56.0,30.21,SE,129,8.0,16.0,45,0.00,,,-99.99,,2013-04-22 21:42:00,
2013-04-22 16:53:00,80.0,56.0,30.17,SW,219,4.0,15.0,44,0.00,,,-99.99,,2013-04-22 21:53:00,
2013-04-22 17:02:00,80.0,56.0,30.17,SW,219,4.0,15.0,44,0.00,,,-99.99,,2013-04-22 22:02:00,
2013-04-22 17:12:00,80.0,56.0,30.17,SW,219,4.0,15.0,44,0.00,,,-99.99,,2013-04-22 22:12:00,
2013-04-22 17:22:00,80.0,55.0,30.15,SSW,203,11.0,17.0,42,0.00,,,-99.99,,2013-04-22 22:22:00,
2013-04-22 17:33:00,80.0,55.0,30.15,SSW,203,11.0,17.0,42,0.00,,,-99.99,,2013-04-22 22:33:00,
2013-04-22 17:42:00,80.0,55.0,30.15,SSW,203,11.0,17.0,42,0.00,,,-99.99,,2013-04-22 22:42:00,
2013-04-22 17:52:00,80.0,55.0,30.15,SSW,203,11.0,17.0,42,0.00,,,-99.99,,2013-04-22 22:52:00,
2013-04-22 18:02:00,81.0,56.0,30.14,South,174,4.0,14.0,42,0.00,,,-99.99,,2013-04-22 23:02:00,
2013-04-22 18:11:00,81.0,56.0,30.14,South,174,4.0,14.0,42,0.00,,,-99.99,,2013-04-22 23:11:00,
2013-04-22 18:21:00,81.0,56.0,30.14,South,174,4.0,14.0,42,0.00,,,-99.99,,2013-04-22 23:21:00,
2013-04-22 18:32:00,81.0,56.0,30.14,South,174,4.0,14.0,42,0.00,,,-99.99,,2013-04-22 23:32:00,